createdAt,value
2022-08-08T00:00:55.397Z,1.40
2022-08-08T00:02:44.719Z,1.07
2022-08-08T00:05:18.992Z,1.07
2022-08-08T00:07:51.997Z,1.30
2022-08-08T00:10:22.182Z,1.33
2022-08-08T00:13:02.529Z,1.20
2022-08-08T00:15:56.978Z,1.10
2022-08-08T00:18:23.293Z,1.07
2022-08-08T00:20:58.023Z,1.10
2022-08-08T00:23:40.654Z,1.00
2022-08-08T00:26:12.917Z,1.77
2022-08-08T00:28:42.653Z,1.13
2022-08-08T00:32:21.262Z,1.20
2022-08-08T00:34:29.893Z,1.17
2022-08-08T00:37:03.820Z,1.00
2022-08-08T00:41:10.841Z,1.07
2022-08-08T00:42:42.177Z,1.00
2022-08-08T00:45:27.249Z,1.20
2022-08-08T00:48:29.235Z,1.37
2022-08-08T00:51:20.918Z,1.30
2022-08-08T00:54:16.201Z,1.30
2022-08-08T00:57:06.361Z,1.10
2022-08-08T01:00:05.129Z,1.33
2022-08-08T01:03:57.376Z,1.00
2022-08-08T01:05:59.429Z,1.17
2022-08-08T01:08:53.077Z,1.20
2022-08-08T01:11:48.303Z,1.27
2022-08-08T01:14:54.349Z,1.30
2022-08-08T01:17:51.443Z,1.40
2022-08-08T01:20:34.942Z,1.10
2022-08-08T01:24:05.891Z,1.13
2022-08-08T01:26:24.178Z,1.30
2022-08-08T01:29:23.985Z,1.10
2022-08-08T01:32:17.392Z,1.37
2022-08-08T01:35:00.677Z,1.30
2022-08-08T01:37:58.556Z,1.17
2022-08-08T01:40:43.597Z,1.00
2022-08-08T01:43:19.282Z,1.20
2022-08-08T01:45:56.326Z,1.23
2022-08-08T01:48:35.769Z,1.37
2022-08-08T01:51:31.955Z,1.20
2022-08-08T01:55:17.508Z,1.40
2022-08-08T01:57:10.714Z,1.10
2022-08-08T02:00:09.251Z,1.10
2022-08-08T02:03:55.896Z,1.13
2022-08-08T02:06:08.907Z,1.20
2022-08-08T02:09:02.047Z,1.50
2022-08-08T02:12:00.144Z,1.50
2022-08-08T02:14:49.963Z,1.20
2022-08-08T02:17:36.423Z,1.27
2022-08-08T02:20:16.128Z,1.10
2022-08-08T02:23:03.658Z,1.13
2022-08-08T02:25:47.493Z,1.20
2022-08-08T02:28:26.080Z,1.00
2022-08-08T02:31:07.153Z,1.57
2022-08-08T02:34:08.432Z,1.10
2022-08-08T02:36:54.777Z,1.20
2022-08-08T02:39:40.893Z,1.07
2022-08-08T02:42:38.461Z,1.10
2022-08-08T02:45:30.978Z,1.13
2022-08-08T02:48:09.117Z,1.20
2022-08-08T02:50:58.781Z,1.30
2022-08-08T02:53:42.697Z,1.23
2022-08-08T02:56:25.383Z,1.10
2022-08-08T02:59:25.937Z,0.93
2022-08-08T03:02:29.985Z,1.17
2022-08-08T03:05:32.800Z,1.27
2022-08-08T03:08:22.976Z,1.30
2022-08-08T03:11:06.138Z,1.30
2022-08-08T03:16:02.089Z,1.17
2022-08-08T03:16:35.993Z,1.20
2022-08-08T03:19:13.906Z,1.27
2022-08-08T03:21:59.101Z,1.33
2022-08-08T03:24:30.888Z,1.70
2022-08-08T03:27:05.243Z,1.37
2022-08-08T03:29:55.580Z,1.30
2022-08-08T03:32:42.011Z,1.40
2022-08-08T03:35:15.788Z,1.20
2022-08-08T03:38:53.819Z,1.33
2022-08-08T03:40:32.664Z,1.47
2022-08-08T03:43:16.802Z,1.20
2022-08-08T03:46:03.481Z,1.37
2022-08-08T03:49:09.854Z,1.30
2022-08-08T03:51:35.431Z,1.20
2022-08-08T03:54:15.692Z,1.10
2022-08-08T03:58:32.068Z,1.43
2022-08-08T03:59:59.614Z,1.33
2022-08-08T04:02:51.742Z,1.40
2022-08-08T04:05:27.363Z,1.20
2022-08-08T04:07:57.984Z,1.07
2022-08-08T04:10:31.622Z,1.20
2022-08-08T04:13:00.894Z,1.30
2022-08-08T04:15:38.844Z,1.50
2022-08-08T04:18:09.301Z,1.30
2022-08-08T04:20:44.536Z,1.30
2022-08-08T04:23:13.329Z,1.20
2022-08-08T04:25:42.961Z,1.50
2022-08-08T04:28:36.901Z,1.30
2022-08-08T04:31:01.116Z,1.33
2022-08-08T04:33:41.751Z,1.17
2022-08-08T04:36:10.930Z,1.23
2022-08-08T04:38:38.491Z,1.47
2022-08-08T04:41:10.743Z,1.37
2022-08-08T04:43:51.152Z,1.27
2022-08-08T04:46:22.977Z,1.70
2022-08-08T04:48:52.793Z,1.60
2022-08-08T04:51:27.970Z,2.03
2022-08-08T04:54:39.149Z,1.50
2022-08-08T04:56:52.783Z,1.40
2022-08-08T04:59:29.745Z,1.63
2022-08-08T05:01:59.645Z,1.43
2022-08-08T05:04:28.693Z,1.30
2022-08-08T05:06:56.820Z,1.50
2022-08-08T05:09:24.612Z,2.03
2022-08-08T05:11:57.041Z,1.60
2022-08-08T05:14:29.147Z,1.33
2022-08-08T05:17:00.949Z,1.27
2022-08-08T05:20:11.851Z,1.60
2022-08-08T05:22:23.650Z,1.37
2022-08-08T05:24:52.203Z,1.70
2022-08-08T05:27:22.559Z,1.30
2022-08-08T05:29:53.861Z,1.40
2022-08-08T05:32:29.179Z,1.30
2022-08-08T05:35:04.555Z,1.37
2022-08-08T05:37:49.109Z,1.50
2022-08-08T05:40:28.655Z,1.57
2022-08-08T05:43:02.455Z,1.47
2022-08-08T05:45:42.930Z,1.60
2022-08-08T05:48:28.948Z,1.60
2022-08-08T05:51:13.375Z,2.13
2022-08-08T05:54:24.028Z,2.23
2022-08-08T05:56:31.295Z,2.20
2022-08-08T05:59:04.194Z,2.47
2022-08-08T06:01:52.679Z,2.50
2022-08-08T06:04:27.628Z,2.90
2022-08-08T06:07:01.629Z,2.23
2022-08-08T06:10:00.311Z,2.23
2022-08-08T06:12:29.855Z,1.93
2022-08-08T06:15:00.754Z,1.60
2022-08-08T06:17:50.184Z,1.57
2022-08-08T06:20:20.800Z,1.50
2022-08-08T06:22:50.166Z,1.40
2022-08-08T06:25:58.886Z,1.70
2022-08-08T06:28:13.145Z,1.37
2022-08-08T06:30:44.670Z,1.47
2022-08-08T06:33:15.218Z,1.23
2022-08-08T06:36:08.819Z,0.90
2022-08-08T06:38:37.734Z,0.90
2022-08-08T06:41:08.336Z,1.10
2022-08-08T06:43:47.714Z,0.97
2022-08-08T06:46:30.020Z,1.20
2022-08-08T06:49:00.717Z,1.10
2022-08-08T06:51:47.158Z,1.37
2022-08-08T06:54:20.581Z,1.30
2022-08-08T06:56:51.489Z,1.07
2022-08-08T06:59:21.660Z,1.47
2022-08-08T07:02:26.423Z,1.10
2022-08-08T07:04:53.891Z,1.10
2022-08-08T07:07:28.616Z,1.00
2022-08-08T07:10:03.604Z,1.10
2022-08-08T07:12:41.398Z,0.90
2022-08-08T07:15:32.063Z,1.00
2022-08-08T07:18:36.476Z,1.13
2022-08-08T07:20:55.116Z,1.03
2022-08-08T07:23:24.398Z,1.20
2022-08-08T07:25:57.066Z,1.00
2022-08-08T07:28:31.728Z,0.80
2022-08-08T07:31:03.122Z,0.90
2022-08-08T07:33:37.911Z,1.00
2022-08-08T07:36:23.020Z,0.80
2022-08-08T07:38:53.384Z,1.00
2022-08-08T07:41:24.858Z,1.30
2022-08-08T07:43:55.861Z,1.10
2022-08-08T07:46:30.321Z,0.80
2022-08-08T07:49:03.472Z,1.10
2022-08-08T07:51:53.099Z,1.00
2022-08-08T07:54:31.099Z,1.10
2022-08-08T07:57:08.960Z,0.90
2022-08-08T07:59:45.986Z,1.10
2022-08-08T08:02:36.714Z,0.90
2022-08-08T08:05:15.379Z,1.30
2022-08-08T08:07:53.104Z,1.00
2022-08-08T08:10:30.272Z,0.90
2022-08-08T08:13:20.503Z,1.13
2022-08-08T08:16:00.448Z,1.00
2022-08-08T08:18:35.368Z,0.80
2022-08-08T08:21:13.343Z,0.90
2022-08-08T08:23:51.176Z,1.03
2022-08-08T08:26:27.724Z,1.20
2022-08-08T08:28:57.807Z,0.90
2022-08-08T08:31:26.033Z,0.83
2022-08-08T08:33:53.837Z,1.07
2022-08-08T08:36:21.900Z,0.90
2022-08-08T08:38:55.842Z,1.13
2022-08-08T08:41:33.902Z,1.30
2022-08-08T08:44:13.819Z,1.30
2022-08-08T08:46:47.414Z,1.20
2022-08-08T08:49:19.555Z,1.10
2022-08-08T08:51:51.054Z,1.03
2022-08-08T08:54:25.212Z,1.20
2022-08-08T08:56:54.963Z,1.40
2022-08-08T08:59:57.554Z,1.20
2022-08-08T09:02:18.844Z,1.27
2022-08-08T09:04:50.274Z,1.27
2022-08-08T09:07:38.786Z,1.30
2022-08-08T09:10:17.258Z,1.47
2022-08-08T09:12:46.533Z,1.20
2022-08-08T09:15:18.680Z,1.10
2022-08-08T09:18:04.175Z,1.17
2022-08-08T09:21:56.667Z,1.13
2022-08-08T09:23:25.325Z,1.60
2022-08-08T09:26:02.014Z,1.30
2022-08-08T09:28:38.309Z,1.20
2022-08-08T09:31:12.889Z,1.00
2022-08-08T09:34:06.153Z,1.03
2022-08-08T09:36:30.822Z,1.20
2022-08-08T09:39:01.163Z,1.27
2022-08-08T09:42:14.559Z,0.93
2022-08-08T09:44:34.004Z,1.17
2022-08-08T09:47:25.703Z,1.30
2022-08-08T09:49:51.698Z,1.10
2022-08-08T09:52:56.093Z,1.20
2022-08-08T09:55:17.231Z,1.00
2022-08-08T09:58:05.253Z,1.20
2022-08-08T10:00:53.067Z,1.03
2022-08-08T10:03:20.987Z,1.30
2022-08-08T10:05:49.822Z,1.30
2022-08-08T10:08:17.708Z,1.17
2022-08-08T10:10:51.120Z,1.33
2022-08-08T10:13:26.031Z,1.00
2022-08-08T10:16:03.346Z,0.80
2022-08-08T10:18:33.345Z,1.20
2022-08-08T10:21:07.357Z,1.20
2022-08-08T10:23:57.890Z,1.03
2022-08-08T10:26:58.777Z,1.20
2022-08-08T10:29:23.323Z,0.97
2022-08-08T10:32:15.296Z,1.03
2022-08-08T10:34:51.106Z,1.20
2022-08-08T10:37:27.631Z,1.07
2022-08-08T10:39:56.019Z,1.00
2022-08-08T10:42:27.373Z,1.10
2022-08-08T10:45:02.368Z,0.90
2022-08-08T10:47:43.333Z,1.00
2022-08-08T10:50:15.351Z,0.97
2022-08-08T10:52:44.421Z,1.00
2022-08-08T10:55:13.896Z,1.00
2022-08-08T10:58:01.547Z,0.90
2022-08-08T11:00:40.772Z,0.93
2022-08-08T11:03:18.193Z,0.90
2022-08-08T11:05:51.859Z,1.10
2022-08-08T11:08:38.222Z,1.17
2022-08-08T11:11:59.407Z,0.97
2022-08-08T11:14:01.132Z,0.90
2022-08-08T11:16:33.454Z,1.03
2022-08-08T11:19:02.837Z,0.90
2022-08-08T11:21:34.864Z,0.90
2022-08-08T11:24:05.081Z,1.03
2022-08-08T11:26:38.400Z,1.27
2022-08-08T11:29:41.416Z,1.30
2022-08-08T11:32:14.129Z,1.10
2022-08-08T11:35:07.956Z,1.10
2022-08-08T11:38:35.386Z,0.90
2022-08-08T11:40:21.505Z,0.90
2022-08-08T11:42:53.187Z,1.00
2022-08-08T11:45:23.564Z,1.00
2022-08-08T11:48:04.519Z,1.43
2022-08-08T11:50:33.743Z,1.00
2022-08-08T11:53:06.103Z,1.00
2022-08-08T11:55:36.346Z,1.30
2022-08-08T11:58:14.738Z,0.93
2022-08-08T12:00:47.585Z,0.87
2022-08-08T12:03:17.374Z,1.00
2022-08-08T12:05:49.306Z,1.10
2022-08-08T12:08:17.009Z,0.70
2022-08-08T12:10:47.811Z,0.83
2022-08-08T12:13:16.516Z,0.80
2022-08-08T12:15:48.276Z,0.90
2022-08-08T12:18:21.237Z,0.90
2022-08-08T12:20:49.913Z,0.90
2022-08-08T12:23:40.084Z,1.17
2022-08-08T12:26:16.862Z,0.87
2022-08-08T12:28:54.906Z,0.93
2022-08-08T12:31:38.659Z,0.90
2022-08-08T12:34:09.166Z,0.90
2022-08-08T12:36:39.898Z,0.90
2022-08-08T12:39:14.191Z,0.90
2022-08-08T12:41:57.114Z,1.00
2022-08-08T12:44:32.130Z,0.90
2022-08-08T12:47:01.241Z,1.00
2022-08-08T12:49:45.138Z,1.00
2022-08-08T12:52:28.801Z,1.10
2022-08-08T12:55:03.003Z,1.03
2022-08-08T12:57:38.309Z,0.90
2022-08-08T13:00:33.937Z,0.90
2022-08-08T13:03:07.323Z,0.90
2022-08-08T13:06:03.180Z,0.90
2022-08-08T13:08:33.278Z,1.10
2022-08-08T13:11:04.281Z,1.00
2022-08-08T13:13:36.900Z,1.00
2022-08-08T13:16:18.978Z,1.07
2022-08-08T13:18:57.590Z,1.00
2022-08-08T13:21:49.196Z,0.93
2022-08-08T13:24:18.551Z,1.20
2022-08-08T13:27:06.052Z,1.10
2022-08-08T13:29:48.230Z,1.40
2022-08-08T13:32:15.800Z,0.87
2022-08-08T13:34:43.219Z,0.80
2022-08-08T13:37:19.524Z,0.80
2022-08-08T13:39:56.084Z,1.00
2022-08-08T13:42:25.090Z,1.00
2022-08-08T13:44:55.434Z,1.00
2022-08-08T13:47:23.914Z,1.00
2022-08-08T13:50:35.829Z,1.20
2022-08-08T13:52:48.626Z,0.90
2022-08-08T13:55:36.212Z,1.30
2022-08-08T13:58:07.798Z,1.10
2022-08-08T14:00:45.231Z,0.83
2022-08-08T14:03:53.921Z,0.90
2022-08-08T14:06:08.523Z,1.20
2022-08-08T14:08:50.277Z,1.10
2022-08-08T14:11:25.094Z,1.10
2022-08-08T14:13:59.576Z,1.10
2022-08-08T14:16:28.539Z,1.10
2022-08-08T14:18:57.530Z,1.00
2022-08-08T14:21:39.882Z,1.00
2022-08-08T14:24:19.807Z,1.20
2022-08-08T14:26:48.733Z,1.03
2022-08-08T14:29:30.076Z,0.90
2022-08-08T14:32:10.762Z,1.20
2022-08-08T14:34:43.273Z,1.10
2022-08-08T14:37:12.653Z,1.03
2022-08-08T14:39:49.870Z,1.00
2022-08-08T14:42:17.583Z,0.90
2022-08-08T14:45:00.310Z,1.10
2022-08-08T14:47:36.012Z,1.00
2022-08-08T14:50:14.100Z,1.20
2022-08-08T14:52:48.127Z,0.90
2022-08-08T14:55:22.354Z,1.03
2022-08-08T14:58:06.173Z,1.03
2022-08-08T15:00:39.793Z,1.07
2022-08-08T15:03:15.634Z,1.10
2022-08-08T15:05:53.355Z,1.10
2022-08-08T15:08:33.366Z,1.17
2022-08-08T15:11:06.471Z,0.80
2022-08-08T15:13:35.202Z,1.00
2022-08-08T15:16:12.206Z,1.17
2022-08-08T15:18:49.994Z,1.03
2022-08-08T15:21:19.281Z,1.03
2022-08-08T15:23:50.950Z,1.00
2022-08-08T15:26:20.821Z,1.70
2022-08-08T15:28:53.192Z,1.03
2022-08-08T15:31:55.880Z,0.90
2022-08-08T15:34:30.105Z,0.90
2022-08-08T15:36:57.038Z,1.13
2022-08-08T15:39:24.434Z,1.07
2022-08-08T15:41:54.637Z,1.03
2022-08-08T15:44:22.255Z,1.10
2022-08-08T15:46:50.813Z,1.30
2022-08-08T15:49:20.513Z,1.20
2022-08-08T15:51:49.964Z,0.80
2022-08-08T15:54:18.750Z,1.10
2022-08-08T15:57:07.397Z,1.07
2022-08-08T16:00:05.748Z,1.10
2022-08-08T16:02:30.959Z,1.20
2022-08-08T16:04:59.191Z,0.90
2022-08-08T16:07:51.848Z,0.93
2022-08-08T16:13:27.453Z,0.97
2022-08-08T16:13:45.231Z,1.10
2022-08-08T16:15:57.671Z,1.00
2022-08-08T16:18:32.965Z,1.20
2022-08-08T16:21:01.267Z,0.97
2022-08-08T16:23:32.107Z,1.10
2022-08-08T16:26:03.962Z,1.20
2022-08-08T16:28:36.039Z,1.17
2022-08-08T16:31:07.557Z,1.07
2022-08-08T16:33:38.544Z,0.93
2022-08-08T16:36:08.514Z,1.17
2022-08-08T16:38:40.749Z,1.50
2022-08-08T16:41:20.164Z,1.43
2022-08-08T16:43:50.877Z,1.20
2022-08-08T16:46:38.560Z,1.20
2022-08-08T16:49:08.028Z,1.30
2022-08-08T16:55:18.250Z,1.37
2022-08-08T16:55:18.254Z,1.37
2022-08-08T16:58:11.930Z,1.20
2022-08-08T17:00:06.552Z,1.20
2022-08-08T17:02:41.952Z,1.07
2022-08-08T17:05:12.867Z,1.50
2022-08-08T17:07:41.869Z,1.30
2022-08-08T17:10:10.130Z,1.17
2022-08-08T17:12:46.854Z,1.13
2022-08-08T17:15:22.886Z,1.40
2022-08-08T17:18:01.035Z,1.20
2022-08-08T17:20:31.525Z,1.23
2022-08-08T17:23:17.602Z,1.50
2022-08-08T17:25:53.369Z,1.13
2022-08-08T17:28:34.107Z,1.37
2022-08-08T17:31:39.109Z,1.33
2022-08-08T17:34:36.071Z,1.20
2022-08-08T17:37:01.021Z,1.40
2022-08-08T17:40:04.408Z,1.60
2022-08-08T17:42:14.499Z,1.57
2022-08-08T17:44:44.021Z,1.63
2022-08-08T17:47:24.198Z,1.30
2022-08-08T17:49:52.584Z,1.30
2022-08-08T17:52:23.235Z,1.50
2022-08-08T17:54:56.116Z,1.50
2022-08-08T17:57:23.973Z,1.57
2022-08-08T17:59:59.086Z,1.50
2022-08-08T18:02:33.065Z,1.40
2022-08-08T18:05:04.807Z,1.37
2022-08-08T18:08:02.573Z,1.53
2022-08-08T18:10:20.814Z,1.60
2022-08-08T18:12:59.134Z,1.40
2022-08-08T18:15:28.459Z,1.70
2022-08-08T18:18:08.989Z,5.50
2022-08-08T18:20:59.358Z,2.00
2022-08-08T18:23:27.210Z,1.50
2022-08-08T18:25:56.416Z,1.40
2022-08-08T18:28:29.061Z,1.70
2022-08-08T18:31:08.750Z,1.67
2022-08-08T18:34:11.817Z,1.63
2022-08-08T18:36:27.514Z,1.70
2022-08-08T18:38:58.546Z,1.57
2022-08-08T18:41:51.492Z,1.47
2022-08-08T18:44:13.627Z,1.70
2022-08-08T18:46:56.175Z,1.30
2022-08-08T18:49:32.640Z,1.67
2022-08-08T18:52:18.545Z,1.80
2022-08-08T18:55:00.652Z,1.40
2022-08-08T18:57:41.186Z,1.70
2022-08-08T19:00:16.999Z,1.30
2022-08-08T19:02:57.017Z,1.60
2022-08-08T19:05:34.815Z,1.40
2022-08-08T19:08:28.341Z,1.50
2022-08-08T19:10:58.379Z,1.30
2022-08-08T19:13:52.803Z,1.70
2022-08-08T19:16:18.315Z,1.53
2022-08-08T19:18:51.477Z,1.40
2022-08-08T19:21:30.865Z,1.60
2022-08-08T19:24:05.644Z,1.67
2022-08-08T19:26:35.035Z,1.47
2022-08-08T19:29:02.518Z,1.40
2022-08-08T19:31:35.621Z,1.20
2022-08-08T19:34:29.889Z,1.60
2022-08-08T19:36:55.111Z,1.33
2022-08-08T19:39:23.678Z,1.47
2022-08-08T19:41:51.345Z,1.53
2022-08-08T19:44:27.020Z,1.60
2022-08-08T19:47:06.894Z,1.60
2022-08-08T19:49:37.650Z,1.60
2022-08-08T19:52:07.690Z,1.60
2022-08-08T19:54:37.953Z,1.40
2022-08-08T19:57:07.598Z,1.70
2022-08-08T19:59:36.183Z,1.20
2022-08-08T20:02:05.224Z,1.70
2022-08-08T20:04:33.387Z,1.57
2022-08-08T20:07:03.491Z,1.60
2022-08-08T20:09:55.317Z,1.53
2022-08-08T20:12:32.342Z,1.60
2022-08-08T20:15:09.752Z,1.60
2022-08-08T20:17:45.000Z,1.73
2022-08-08T20:20:18.815Z,1.60
2022-08-08T20:22:52.659Z,1.60
2022-08-08T20:25:24.589Z,1.60
2022-08-08T20:27:57.773Z,1.90
2022-08-08T20:30:53.178Z,2.00
2022-08-08T20:35:57.877Z,1.80
2022-08-08T20:38:29.144Z,2.07
2022-08-08T20:41:17.095Z,2.00
2022-08-08T20:43:49.260Z,1.83
2022-08-08T20:46:20.653Z,1.80
2022-08-08T20:48:48.868Z,1.80
2022-08-08T20:51:17.413Z,2.00
2022-08-08T20:53:59.862Z,1.90
2022-08-08T20:56:35.558Z,1.90
2022-08-08T20:59:05.613Z,1.83
2022-08-08T21:02:05.267Z,1.87
2022-08-08T21:04:21.350Z,1.70
2022-08-08T21:06:53.226Z,2.00
2022-08-08T21:09:21.574Z,1.90
2022-08-08T21:11:53.634Z,1.90
2022-08-08T21:14:34.400Z,1.70
2022-08-08T21:17:06.224Z,1.80
2022-08-08T21:19:46.119Z,2.20
2022-08-08T21:22:15.480Z,1.70
2022-08-08T21:24:52.491Z,2.03
2022-08-08T21:28:05.081Z,1.90
2022-08-08T21:30:19.184Z,1.67
2022-08-08T21:32:50.968Z,1.80
2022-08-08T21:36:16.423Z,2.03
2022-08-08T21:38:11.949Z,1.70
2022-08-08T21:40:55.143Z,1.90
2022-08-08T21:43:25.474Z,1.80
2022-08-08T21:48:02.551Z,1.80
2022-08-08T21:48:44.315Z,1.77
2022-08-08T21:51:16.586Z,2.03
2022-08-08T21:54:36.812Z,2.10
2022-08-08T21:56:51.388Z,1.90
2022-08-08T21:59:20.997Z,2.27
2022-08-08T22:01:51.918Z,2.13
2022-08-08T22:04:24.788Z,1.83
2022-08-08T22:06:53.206Z,1.97
2022-08-08T22:09:20.600Z,2.00
2022-08-08T22:12:09.266Z,1.97
2022-08-08T22:14:38.265Z,1.70
2022-08-08T22:17:10.642Z,2.10
2022-08-08T22:20:10.494Z,1.97
2022-08-08T22:22:28.787Z,2.07
2022-08-08T22:24:57.178Z,2.30
2022-08-08T22:28:01.049Z,2.17
2022-08-08T22:30:14.773Z,2.00
2022-08-08T22:32:43.589Z,1.87
2022-08-08T22:35:23.877Z,2.17
2022-08-08T22:37:54.328Z,2.30
2022-08-08T22:40:23.011Z,2.20
2022-08-08T22:42:59.182Z,2.20
2022-08-08T22:45:28.885Z,2.30
2022-08-08T22:47:56.716Z,2.20
2022-08-08T22:50:26.455Z,2.27
2022-08-08T22:52:58.771Z,2.40
2022-08-08T22:55:59.826Z,2.20
2022-08-08T22:58:30.997Z,2.10
2022-08-08T23:01:00.562Z,2.00
2022-08-08T23:03:34.225Z,1.80
2022-08-08T23:06:15.793Z,2.10
2022-08-08T23:08:44.433Z,2.30
2022-08-08T23:11:22.571Z,2.10
2022-08-08T23:13:53.427Z,2.20
2022-08-08T23:16:38.500Z,2.10
2022-08-08T23:19:10.417Z,1.83
2022-08-08T23:21:38.956Z,2.20
2022-08-08T23:24:07.057Z,2.13
2022-08-08T23:26:34.598Z,2.27
2022-08-08T23:29:02.208Z,2.30
2022-08-08T23:31:38.904Z,2.13
2022-08-08T23:34:18.643Z,2.17
2022-08-08T23:36:47.640Z,2.00
2022-08-08T23:39:15.603Z,2.13
2022-08-08T23:41:47.265Z,2.10
2022-08-08T23:44:19.796Z,2.10
2022-08-08T23:49:04.474Z,2.40
2022-08-08T23:49:40.204Z,2.03
2022-08-08T23:52:13.053Z,2.10
2022-08-08T23:54:59.988Z,2.30
2022-08-08T23:57:39.076Z,1.90
